Time;durP1;ratioP1;P1;durP2;ratioP2;P2;SDS_P1;SDS_P2;PMS_P1;PMS_P2;Temp;Humidity;BMP_temperature;BMP_pressure;BME280_temperature;BME280_humidity;BME280_pressure;Samples;Min_cycle;Max_cycle;Signal;HPM_P1;HPM_P2
2023/06/01 00:01:36;;;;;;;2.33;1.75;;;;;;;16.03;76.31;100110.47;6301885;28;20049;-71
2023/06/01 00:04:40;;;;;;;3.05;1.98;;;;;;;15.96;74.80;100117.22;6301740;28;20393;-70
2023/06/01 00:07:43;;;;;;;3.58;2.03;;;;;;;15.90;74.75;100109.84;6302076;28;20048;-72
2023/06/01 00:10:44;;;;;;;4.88;1.80;;;;;;;15.80;75.25;100101.88;6301511;28;20051;-70
2023/06/01 00:13:45;;;;;;;5.35;1.98;;;;;;;15.78;75.99;100095.91;6300531;28;20427;-70
2023/06/01 00:16:46;;;;;;;2.80;1.75;;;;;;;15.80;76.68;100101.03;6301693;28;20063;-70
2023/06/01 00:19:47;;;;;;;3.28;1.80;;;;;;;15.82;75.46;100110.47;6300102;28;20056;-70
2023/06/01 00:22:48;;;;;;;2.33;1.80;;;;;;;15.78;73.47;100103.78;6301219;28;20492;-70
2023/06/01 00:25:49;;;;;;;6.07;1.55;;;;;;;15.70;74.43;100106.19;6301138;28;20053;-70
2023/06/01 00:28:50;;;;;;;3.75;2.03;;;;;;;15.65;71.47;100106.56;6301338;28;20055;-71
2023/06/01 00:31:51;;;;;;;1.63;1.52;;;;;;;15.62;73.12;100098.91;6299735;28;20073;-70
2023/06/01 00:34:51;;;;;;;4.05;1.80;;;;;;;15.62;77.01;100105.97;6299820;28;20186;-70
2023/06/01 00:37:52;;;;;;;5.72;2.00;;;;;;;15.55;77.12;100103.00;6300355;28;20063;-70
2023/06/01 00:40:53;;;;;;;3.45;2.10;;;;;;;15.55;76.79;100115.31;6300455;28;20056;-71
2023/06/01 00:43:54;;;;;;;3.35;1.67;;;;;;;15.39;76.50;100110.47;6299557;28;20056;-72
2023/06/01 00:46:55;;;;;;;2.33;1.77;;;;;;;15.29;76.62;100110.34;6299222;28;20044;-70
2023/06/01 00:49:55;;;;;;;3.15;1.73;;;;;;;15.27;76.21;100113.09;6300782;28;20048;-71
2023/06/01 00:53:00;;;;;;;7.75;1.83;;;;;;;15.26;78.46;100118.50;6300452;28;20055;-71
2023/06/01 00:56:01;;;;;;;3.30;2.17;;;;;;;15.16;79.67;100113.13;6300379;28;20132;-71
2023/06/01 00:59:04;;;;;;;2.45;1.73;;;;;;;15.13;77.97;100110.72;6300484;28;20460;-70
2023/06/01 01:02:05;;;;;;;2.97;1.25;;;;;;;15.03;79.66;100109.78;6300335;28;20098;-69
2023/06/01 01:05:11;;;;;;;2.42;1.40;;;;;;;15.01;78.72;100109.06;6300309;28;20183;-70
2023/06/01 01:08:24;;;;;;;3.45;2.00;;;;;;;14.97;80.63;100108.50;6300475;28;20060;-71
2023/06/01 01:11:30;;;;;;;2.47;1.42;;;;;;;14.86;79.95;100098.81;6298948;28;20093;-70
2023/06/01 01:14:43;;;;;;;2.58;1.85;;;;;;;14.73;80.76;100089.41;6300368;28;20056;-72
2023/06/01 01:17:51;;;;;;;6.88;2.15;;;;;;;14.78;80.76;100095.94;6299996;28;20064;-72
2023/06/01 01:21:00;;;;;;;2.55;1.38;;;;;;;14.76;81.98;100095.22;6300116;28;20085;-70
2023/06/01 01:24:03;;;;;;;3.90;1.90;;;;;;;14.72;83.29;100093.78;6298657;28;20101;-70
2023/06/01 01:27:17;;;;;;;3.03;1.80;;;;;;;14.65;85.56;100103.13;6299908;28;20056;-69
2023/06/01 01:30:24;;;;;;;3.72;1.58;;;;;;;14.68;84.73;100100.22;6298583;28;20440;-71
2023/06/01 01:33:27;;;;;;;2.97;1.50;;;;;;;14.57;84.41;100100.25;6299849;28;20044;-72
2023/06/01 01:36:28;;;;;;;2.40;1.50;;;;;;;14.54;85.05;100090.78;6299779;28;20178;-72
2023/06/01 01:39:31;;;;;;;2.67;1.90;;;;;;;14.55;86.55;100096.88;6298647;28;20056;-71
2023/06/01 01:42:32;;;;;;;3.17;1.48;;;;;;;14.56;86.69;100098.56;6298697;28;20060;-71
2023/06/01 01:45:34;;;;;;;1.90;1.63;;;;;;;14.54;87.23;100101.28;6297765;28;20139;-72
2023/06/01 01:48:52;;;;;;;3.08;1.70;;;;;;;14.48;87.85;100097.34;6298587;28;20044;-72
2023/06/01 01:52:02;;;;;;;2.35;1.55;;;;;;;14.51;87.80;100096.25;6299230;28;20513;-70
2023/06/01 01:55:04;;;;;;;3.00;1.70;;;;;;;14.42;87.44;100091.72;6297816;28;20055;-71
2023/06/01 01:58:05;;;;;;;2.17;1.65;;;;;;;14.39;89.83;100087.56;6299294;28;20052;-70
2023/06/01 02:01:07;;;;;;;5.00;1.83;;;;;;;14.21;90.99;100088.94;6299103;28;20048;-72
2023/06/01 02:04:08;;;;;;;3.03;1.77;;;;;;;14.19;91.93;100099.56;6298121;28;20159;-70
2023/06/01 02:07:09;;;;;;;3.03;1.60;;;;;;;14.19;91.65;100101.34;6298827;28;20060;-70
2023/06/01 02:10:10;;;;;;;2.67;1.70;;;;;;;14.17;89.82;100096.22;6298299;28;20167;-71
2023/06/01 02:13:14;;;;;;;4.03;2.10;;;;;;;14.14;89.74;100096.44;6298621;28;20598;-72
2023/06/01 02:16:18;;;;;;;3.60;1.52;;;;;;;14.17;89.20;100093.59;6296651;28;20408;-70
2023/06/01 02:19:18;;;;;;;2.70;1.83;;;;;;;14.13;90.39;100089.53;6298492;28;20056;-70
2023/06/01 02:22:19;;;;;;;7.88;2.08;;;;;;;14.14;90.42;100092.97;6297285;28;20730;-71
2023/06/01 02:25:20;;;;;;;8.88;2.13;;;;;;;14.11;89.80;100097.50;6298555;28;20053;-71
2023/06/01 02:28:21;;;;;;;6.03;2.40;;;;;;;14.09;88.12;100099.41;6297168;28;20044;-71
2023/06/01 02:31:22;;;;;;;3.58;2.20;;;;;;;13.94;88.43;100092.69;6297063;28;20055;-69
2023/06/01 02:34:23;;;;;;;2.90;1.97;;;;;;;13.89;89.95;100082.53;6298268;28;20051;-70
2023/06/01 02:37:24;;;;;;;5.57;2.10;;;;;;;13.90;91.57;100086.00;6298284;28;20053;-69
2023/06/01 02:40:25;;;;;;;6.15;2.05;;;;;;;13.94;92.28;100089.22;6298118;28;20098;-70
2023/06/01 02:43:26;;;;;;;8.85;2.40;;;;;;;13.86;90.53;100085.38;6297966;28;20049;-71
2023/06/01 02:46:26;;;;;;;3.78;2.33;;;;;;;13.76;91.48;100089.63;6330948;28;20049;-70
2023/06/01 02:49:27;;;;;;;7.55;2.28;;;;;;;13.83;90.44;100084.78;6297909;28;20088;-69
2023/06/01 02:52:28;;;;;;;2.67;2.00;;;;;;;13.84;91.98;100096.94;6296500;28;20056;-70
2023/06/01 02:55:29;;;;;;;4.20;2.20;;;;;;;13.90;92.16;100096.50;6297163;28;20102;-71
2023/06/01 02:58:30;;;;;;;5.88;2.30;;;;;;;13.87;90.82;100088.84;6297910;28;20056;-71
2023/06/01 03:01:35;;;;;;;2.13;1.63;;;;;;;13.85;90.95;100093.34;6297723;28;20458;-70
2023/06/01 03:04:37;;;;;;;3.13;2.13;;;;;;;13.86;89.18;100089.81;6297569;28;20493;-71
2023/06/01 03:07:41;;;;;;;3.90;2.13;;;;;;;13.90;89.97;100094.69;6297766;28;20052;-72
2023/06/01 03:10:41;;;;;;;5.97;2.35;;;;;;;13.94;91.37;100083.97;6296305;28;20048;-70
2023/06/01 03:13:42;;;;;;;8.48;2.03;;;;;;;13.95;89.33;100086.47;6296672;28;20181;-70
2023/06/01 03:16:43;;;;;;;6.50;2.50;;;;;;;14.00;90.41;100081.75;6296266;28;20048;-71
2023/06/01 03:19:43;;;;;;;3.55;1.80;;;;;;;14.05;89.10;100078.78;6297619;28;20086;-71
2023/06/01 03:22:47;;;;;;;7.35;1.92;;;;;;;14.11;87.81;100087.00;6296072;28;20048;-72
2023/06/01 03:25:51;;;;;;;4.78;1.75;;;;;;;14.16;88.12;100086.66;6296042;28;20056;-70
2023/06/01 03:28:51;;;;;;;3.00;2.08;;;;;;;14.19;87.10;100085.59;6297165;28;20052;-70
2023/06/01 03:31:52;;;;;;;10.05;2.28;;;;;;;14.18;86.11;100087.38;6296090;28;20488;-70
2023/06/01 03:34:53;;;;;;;3.97;1.58;;;;;;;14.22;85.68;100080.94;6296171;28;20057;-70
2023/06/01 03:37:53;;;;;;;3.80;2.13;;;;;;;14.26;86.05;100086.81;6329636;28;20055;-70
2023/06/01 03:40:54;;;;;;;3.25;1.75;;;;;;;14.35;86.29;100094.00;6295956;28;20060;-71
2023/06/01 03:43:55;;;;;;;4.28;2.00;;;;;;;14.32;81.19;100087.16;6295946;28;20377;-71
2023/06/01 03:46:55;;;;;;;4.10;2.28;;;;;;;14.36;84.10;100084.31;6297373;28;20389;-71
2023/06/01 03:49:58;;;;;;;4.53;1.77;;;;;;;14.39;82.24;100089.31;6297076;28;20139;-70
2023/06/01 03:52:58;;;;;;;3.13;1.67;;;;;;;14.45;83.01;100086.22;6295977;28;20079;-70
2023/06/01 03:56:00;;;;;;;2.72;1.55;;;;;;;14.52;83.56;100084.81;6296669;28;20069;-70
2023/06/01 03:59:01;;;;;;;2.35;1.75;;;;;;;14.54;80.66;100085.53;6295828;28;20480;-70
2023/06/01 04:02:04;;;;;;;5.43;1.85;;;;;;;14.60;80.12;100077.22;6295817;28;20048;-71
2023/06/01 04:05:07;;;;;;;2.33;1.52;;;;;;;14.64;81.47;100078.66;6296721;28;20056;-72
2023/06/01 04:08:08;;;;;;;2.42;1.77;;;;;;;14.63;78.54;100071.72;6296981;28;20060;-70
2023/06/01 04:11:09;;;;;;;4.43;1.63;;;;;;;14.73;79.07;100076.25;6296710;28;20523;-71
2023/06/01 04:14:10;;;;;;;6.30;1.67;;;;;;;14.77;74.66;100072.44;6295590;28;20057;-72
2023/06/01 04:17:11;;;;;;;3.08;1.50;;;;;;;14.88;74.00;100077.69;6295964;28;20075;-71
2023/06/01 04:20:15;;;;;;;2.75;1.58;;;;;;;15.00;75.09;100079.34;6296195;28;20049;-72
2023/06/01 04:23:18;;;;;;;2.95;1.50;;;;;;;15.02;75.37;100080.06;6296646;28;20103;-72
2023/06/01 04:26:18;;;;;;;2.50;1.40;;;;;;;15.11;73.81;100081.97;6296644;28;20060;-72
2023/06/01 04:29:24;;;;;;;5.22;1.83;;;;;;;15.20;73.37;100084.81;6295238;28;20091;-72
2023/06/01 04:32:27;;;;;;;2.75;1.58;;;;;;;15.33;71.75;100077.59;6296456;28;20382;-69
2023/06/01 04:35:30;;;;;;;5.97;1.73;;;;;;;15.39;73.79;100079.75;6295242;28;20048;-70
2023/06/01 04:38:32;;;;;;;3.30;1.85;;;;;;;15.44;72.89;100074.09;6297681;28;20094;-69
2023/06/01 04:41:35;;;;;;;3.83;1.52;;;;;;;15.44;72.86;100077.59;6299589;28;20064;-69
2023/06/01 04:44:35;;;;;;;4.80;1.70;;;;;;;15.54;69.99;100075.03;6299495;28;20056;-70
2023/06/01 04:47:37;;;;;;;3.95;1.55;;;;;;;15.73;70.26;100078.81;6300963;28;20133;-70
2023/06/01 04:50:40;;;;;;;4.80;2.00;;;;;;;15.85;70.25;100070.72;6300768;28;20055;-70
2023/06/01 04:53:43;;;;;;;3.53;1.42;;;;;;;15.94;68.23;100076.19;6322187;28;20135;-69
2023/06/01 04:56:44;;;;;;;2.60;1.60;;;;;;;15.98;67.58;100072.34;6324545;28;20044;-70
2023/06/01 04:59:45;;;;;;;3.08;1.77;;;;;;;16.18;67.93;100070.69;6325780;28;20491;-70
2023/06/01 05:02:47;;;;;;;2.58;1.63;;;;;;;16.24;67.03;100064.91;6324372;28;20063;-69
2023/06/01 05:05:48;;;;;;;3.83;1.95;;;;;;;16.29;67.02;100058.28;6325348;28;20055;-70
2023/06/01 05:08:49;;;;;;;3.60;1.67;;;;;;;16.43;67.25;100069.44;6324080;28;20546;-70
2023/06/01 05:11:50;;;;;;;6.50;2.10;;;;;;;16.49;66.64;100059.22;6324457;28;20052;-71
2023/06/01 05:14:51;;;;;;;5.30;1.65;;;;;;;16.71;66.56;100065.28;6325545;28;20101;-70
2023/06/01 05:17:51;;;;;;;4.70;1.55;;;;;;;16.87;65.07;100062.19;6325095;28;20048;-70
2023/06/01 05:20:52;;;;;;;3.05;1.67;;;;;;;16.98;65.24;100062.06;6324143;28;20048;-70
2023/06/01 05:23:53;;;;;;;5.47;1.85;;;;;;;17.12;64.54;100059.03;6325284;28;20047;-70
2023/06/01 05:26:54;;;;;;;3.08;1.52;;;;;;;17.35;66.84;100060.63;6325006;28;20554;-70
2023/06/01 05:29:55;;;;;;;3.80;1.80;;;;;;;17.55;66.33;100056.19;6324822;28;20491;-70
2023/06/01 05:32:56;;;;;;;2.75;1.58;;;;;;;17.69;65.96;100066.34;6325256;28;20500;-70
2023/06/01 05:35:56;;;;;;;2.15;1.40;;;;;;;17.77;62.43;100061.19;6323513;28;20144;-70
2023/06/01 05:38:58;;;;;;;3.10;1.58;;;;;;;18.02;65.08;100067.72;6325042;28;20128;-71
2023/06/01 05:41:59;;;;;;;2.95;1.65;;;;;;;18.13;66.14;100057.00;6323288;28;20426;-72
2023/06/01 05:45:00;;;;;;;2.65;1.77;;;;;;;18.25;65.20;100057.66;6324624;28;20132;-71
2023/06/01 05:48:02;;;;;;;2.35;1.70;;;;;;;18.43;64.53;100065.69;6323405;28;20055;-71
2023/06/01 05:51:02;;;;;;;4.30;1.83;;;;;;;18.47;63.31;100060.94;6323636;28;20456;-72
2023/06/01 05:54:07;;;;;;;2.67;1.45;;;;;;;18.61;61.73;100064.91;6322749;28;20048;-71
2023/06/01 05:57:08;;;;;;;2.88;1.80;;;;;;;18.78;61.98;100072.09;6323475;28;20048;-72
2023/06/01 06:00:10;;;;;;;5.97;2.13;;;;;;;18.90;60.66;100076.25;6322396;28;20059;-71
2023/06/01 06:03:11;;;;;;;5.55;2.00;;;;;;;19.18;62.23;100073.56;6322372;28;20101;-72
2023/06/01 06:06:12;;;;;;;3.55;2.00;;;;;;;19.35;61.29;100073.75;6322479;28;20052;-72
2023/06/01 06:09:13;;;;;;;11.40;1.83;;;;;;;19.48;61.97;100082.16;6323350;28;20097;-72
2023/06/01 06:12:14;;;;;;;5.18;1.73;;;;;;;19.63;59.03;100083.28;6322028;28;20040;-72
2023/06/01 06:15:15;;;;;;;2.45;1.63;;;;;;;19.64;56.78;100078.81;6323365;28;20051;-72
2023/06/01 06:18:16;;;;;;;2.45;1.70;;;;;;;19.78;56.90;100083.59;6321879;28;20048;-72
2023/06/01 06:21:17;;;;;;;6.97;2.10;;;;;;;19.87;56.56;100084.50;6323060;28;20048;-71
2023/06/01 06:24:17;;;;;;;6.65;1.88;;;;;;;20.03;56.94;100083.81;6322996;28;20404;-70
2023/06/01 06:27:18;;;;;;;2.85;1.65;;;;;;;20.28;58.82;100083.00;6321846;28;20150;-70
2023/06/01 06:30:19;;;;;;;1.50;1.40;;;;;;;20.56;57.23;100085.47;6321881;28;20139;-71
2023/06/01 06:33:20;;;;;;;6.00;1.60;;;;;;;20.71;55.18;100083.94;6323500;28;20052;-72
2023/06/01 06:36:21;;;;;;;5.60;1.73;;;;;;;20.73;54.93;100084.63;6322985;28;20201;-72
2023/06/01 06:39:22;;;;;;;5.50;1.70;;;;;;;21.01;54.64;100083.56;6322506;28;20055;-70
2023/06/01 06:42:24;;;;;;;3.37;1.53;;;;;;;20.97;54.04;100091.00;6321257;28;20139;-70
2023/06/01 06:45:26;;;;;;;4.35;2.00;;;;;;;21.36;54.48;100079.00;6322375;28;20048;-72
2023/06/01 06:48:27;;;;;;;4.10;1.83;;;;;;;21.46;51.42;100083.19;6321088;28;20193;-72
2023/06/01 06:51:28;;;;;;;3.67;1.80;;;;;;;21.45;51.77;100086.00;6322256;28;20476;-72
2023/06/01 06:54:29;;;;;;;5.73;2.20;;;;;;;21.61;50.71;100082.56;6321293;28;20056;-72
2023/06/01 06:57:29;;;;;;;4.13;2.10;;;;;;;21.88;50.51;100084.88;6311769;28;20052;-72
2023/06/01 07:00:32;;;;;;;1.80;1.37;;;;;;;22.04;51.68;100084.06;6296134;28;20135;-71
2023/06/01 07:03:32;;;;;;;8.80;1.85;;;;;;;22.37;51.83;100088.53;6294243;28;20518;-71
2023/06/01 07:06:37;;;;;;;3.00;1.60;;;;;;;22.65;50.51;100083.63;6296125;28;20052;-72
2023/06/01 07:09:37;;;;;;;4.80;2.00;;;;;;;22.69;51.55;100072.50;6295780;28;20049;-72
2023/06/01 07:12:38;;;;;;;3.10;1.57;;;;;;;22.83;49.43;100078.91;6296826;28;20051;-72
2023/06/01 07:15:39;;;;;;;2.60;1.60;;;;;;;23.10;49.04;100076.81;6295847;28;20048;-72
2023/06/01 07:18:40;;;;;;;3.70;1.85;;;;;;;23.25;49.13;100082.25;6295527;28;20080;-72
2023/06/01 07:21:41;;;;;;;2.77;1.80;;;;;;;23.35;48.03;100077.53;6296769;28;20052;-71
2023/06/01 07:24:44;;;;;;;2.25;1.55;;;;;;;23.56;48.83;100078.72;6297029;28;20044;-72
2023/06/01 07:27:48;;;;;;;6.40;2.10;;;;;;;23.52;48.31;100083.56;6296323;28;20049;-72
2023/06/01 07:30:48;;;;;;;4.47;2.05;;;;;;;23.61;46.99;100085.16;6329036;28;20084;-71
2023/06/01 07:33:51;;;;;;;4.93;1.93;;;;;;;23.49;49.08;100086.56;6296878;28;20144;-70
2023/06/01 07:36:52;;;;;;;2.75;1.88;;;;;;;23.81;45.36;100082.88;6296475;28;20432;-71
2023/06/01 07:39:54;;;;;;;3.47;1.92;;;;;;;23.91;46.61;100079.97;6297041;28;20572;-71
2023/06/01 07:42:55;;;;;;;4.35;1.95;;;;;;;23.99;45.51;100071.91;6295564;28;20091;-73
2023/06/01 07:45:57;;;;;;;3.78;1.70;;;;;;;23.85;45.21;100078.03;6296554;28;20094;-72
2023/06/01 07:48:58;;;;;;;2.75;1.88;;;;;;;24.30;46.16;100074.41;6295358;28;20056;-72
2023/06/01 07:51:59;;;;;;;3.47;2.00;;;;;;;24.50;45.21;100073.91;6296304;28;20083;-71
2023/06/01 07:55:00;;;;;;;3.05;1.60;;;;;;;24.31;44.54;100064.56;6296356;28;20060;-71
2023/06/01 07:58:01;;;;;;;6.45;1.92;;;;;;;24.25;45.02;100071.47;6296133;28;20048;-72
2023/06/01 08:01:04;;;;;;;2.28;1.90;;;;;;;24.10;44.44;100066.13;6295300;28;20485;-72
2023/06/01 08:04:05;;;;;;;4.40;1.70;;;;;;;24.63;44.86;100065.28;6296218;28;20538;-72
2023/06/01 08:07:07;;;;;;;4.05;1.80;;;;;;;24.79;45.04;100064.22;6296153;28;20091;-72
2023/06/01 08:10:08;;;;;;;6.05;1.92;;;;;;;25.20;42.12;100058.34;6295949;28;20049;-71
2023/06/01 08:13:09;;;;;;;3.75;1.88;;;;;;;25.50;44.11;100053.75;6297657;28;20053;-71
2023/06/01 08:16:10;;;;;;;4.57;2.03;;;;;;;25.49;43.33;100057.44;6299623;28;20119;-72
2023/06/01 08:19:11;;;;;;;7.28;2.00;;;;;;;25.67;43.37;100055.13;6300681;28;20052;-70
2023/06/01 08:22:11;;;;;;;2.47;1.70;;;;;;;25.67;43.37;100060.47;6300737;28;20067;-71
2023/06/01 08:25:13;;;;;;;6.27;1.70;;;;;;;25.75;43.11;100051.50;6299487;28;20472;-71
2023/06/01 08:28:14;;;;;;;8.70;1.80;;;;;;;24.96;43.78;100048.81;6299545;28;20049;-72
2023/06/01 08:31:15;;;;;;;3.50;1.85;;;;;;;25.61;42.42;100047.88;6299329;28;20126;-72
2023/06/01 08:34:16;;;;;;;3.33;2.10;;;;;;;26.04;42.79;100055.88;6300678;28;20411;-72
2023/06/01 08:37:17;;;;;;;2.47;1.67;;;;;;;26.20;40.95;100057.44;6300396;28;20059;-72
2023/06/01 08:40:17;;;;;;;3.97;1.92;;;;;;;26.39;42.72;100047.06;6299277;28;20052;-72
2023/06/01 08:43:27;;;;;;;3.30;2.00;;;;;;;26.61;41.58;100043.28;6333087;28;20053;-71
2023/06/01 08:46:34;;;;;;;6.30;2.03;;;;;;;26.57;41.49;100036.69;6298934;28;20127;-73
2023/06/01 08:49:36;;;;;;;3.42;1.90;;;;;;;26.61;39.42;100035.28;6300140;28;20052;-72
2023/06/01 08:52:38;;;;;;;5.45;1.52;;;;;;;26.87;39.87;100036.38;6299855;28;20040;-72
2023/06/01 08:55:39;;;;;;;3.45;2.13;;;;;;;27.10;40.29;100028.84;6297883;28;20057;-72
2023/06/01 08:58:41;;;;;;;2.85;1.70;;;;;;;26.61;40.41;100026.44;6298491;28;20508;-71
2023/06/01 09:01:43;;;;;;;3.28;1.88;;;;;;;26.85;39.97;100025.06;6299790;28;20071;-71
2023/06/01 09:04:44;;;;;;;2.10;1.65;;;;;;;27.16;37.66;100023.69;6298475;28;20060;-72
2023/06/01 09:07:46;;;;;;;2.92;1.80;;;;;;;26.81;40.43;100035.38;6298614;28;20049;-72
2023/06/01 09:10:47;;;;;;;1.80;1.50;;;;;;;27.48;40.01;100028.31;6299317;28;20527;-73
2023/06/01 09:13:48;;;;;;;2.63;1.80;;;;;;;27.59;39.80;100031.41;6299634;28;20049;-71
2023/06/01 09:16:50;;;;;;;2.67;1.70;;;;;;;27.57;39.66;100025.44;6299302;28;20068;-71
2023/06/01 09:20:47;;;;;;;2.83;1.80;;;;;;;27.62;38.74;100023.81;6299498;28;20053;-70
2023/06/01 09:23:48;;;;;;;1.60;1.38;;;;;;;27.65;36.66;100018.00;6297615;28;20538;-69
2023/06/01 09:26:49;;;;;;;2.55;1.73;;;;;;;28.02;34.19;100028.34;6298183;28;20049;-69
2023/06/01 09:29:59;;;;;;;2.88;1.50;;;;;;;27.78;36.21;100021.72;6298986;28;20052;-69
2023/06/01 09:33:20;;;;;;;3.25;1.80;;;;;;;27.87;36.22;100018.66;6298942;28;20469;-70
2023/06/01 09:36:25;;;;;;;3.15;1.58;;;;;;;27.39;35.49;100016.16;6298923;28;20135;-71
2023/06/01 09:39:26;;;;;;;6.35;1.67;;;;;;;27.48;36.43;100019.47;6297575;28;20451;-70
2023/06/01 09:42:34;;;;;;;3.13;1.92;;;;;;;28.52;35.99;100017.94;6298653;28;20048;-69
2023/06/01 09:45:37;;;;;;;2.67;1.75;;;;;;;28.48;34.33;100016.69;6298924;28;20060;-70
2023/06/01 09:48:38;;;;;;;2.13;1.65;;;;;;;28.47;36.39;100015.03;6298578;28;20080;-70
2023/06/01 09:51:41;;;;;;;8.25;1.88;;;;;;;27.65;34.48;100017.19;6298617;28;20051;-70
2023/06/01 09:54:48;;;;;;;2.13;1.65;;;;;;;28.25;34.36;100007.25;6298496;28;20052;-70
2023/06/01 09:57:48;;;;;;;2.67;1.58;;;;;;;28.69;34.21;100010.22;6297240;28;20553;-70
2023/06/01 10:00:51;;;;;;;4.78;1.90;;;;;;;28.24;32.57;99999.41;6297131;28;20079;-71
2023/06/01 10:03:55;;;;;;;3.17;1.55;;;;;;;28.27;32.53;99997.16;6297048;28;20557;-71
2023/06/01 10:06:57;;;;;;;5.05;1.98;;;;;;;28.02;34.10;100007.69;6298031;28;20056;-70
2023/06/01 10:10:02;;;;;;;2.30;1.52;;;;;;;28.26;34.52;99992.81;6298047;28;20052;-70
2023/06/01 10:13:03;;;;;;;3.08;1.70;;;;;;;28.78;31.05;99997.38;6298024;28;20076;-69
2023/06/01 10:16:04;;;;;;;1.88;1.42;;;;;;;28.92;29.75;99999.78;6297065;28;20052;-69
2023/06/01 10:19:06;;;;;;;1.27;1.17;;;;;;;29.45;31.85;99990.56;6296759;28;20059;-70
2023/06/01 10:22:07;;;;;;;2.67;1.70;;;;;;;29.49;31.16;99994.47;6297726;28;20186;-71
2023/06/01 10:25:12;;;;;;;5.13;1.92;;;;;;;29.13;30.77;99985.19;6297537;28;20484;-70
2023/06/01 10:28:13;;;;;;;2.42;1.45;;;;;;;29.12;31.06;99982.75;6297583;28;20492;-70
2023/06/01 10:31:36;;;;;;;4.68;1.60;;;;;;;28.59;29.34;99978.47;6330304;28;20044;-70
2023/06/01 10:34:46;;;;;;;2.05;1.55;;;;;;;29.36;30.89;99974.94;6297427;28;20094;-70
2023/06/01 10:38:07;;;;;;;2.03;1.50;;;;;;;29.82;30.90;99974.56;6295350;28;20045;-70
2023/06/01 10:41:30;;;;;;;2.90;2.20;;;;;;;29.92;29.89;99982.13;6297097;28;20055;-70
2023/06/01 10:44:40;;;;;;;2.45;1.50;;;;;;;29.00;30.25;99973.72;6296219;28;20056;-69
2023/06/01 10:47:44;;;;;;;3.28;1.75;;;;;;;29.96;29.70;99967.19;6297366;28;20488;-69
2023/06/01 10:51:20;;;;;;;3.15;1.80;;;;;;;30.02;31.12;99963.59;6295907;28;20507;-69
2023/06/01 10:54:31;;;;;;;3.08;1.80;;;;;;;29.98;28.06;99959.72;6297318;28;20079;-70
2023/06/01 10:57:38;;;;;;;8.75;1.60;;;;;;;29.50;27.82;99965.72;6297334;28;20143;-70
2023/06/01 11:00:42;;;;;;;4.00;1.77;;;;;;;29.83;27.82;99961.94;6297096;28;20049;-71
2023/06/01 11:03:47;;;;;;;3.20;1.60;;;;;;;29.73;27.44;99957.06;6296988;28;20135;-70
2023/06/01 11:06:48;;;;;;;2.50;1.55;;;;;;;29.80;25.77;99948.94;6296887;28;20412;-68
2023/06/01 11:09:48;;;;;;;2.63;1.50;;;;;;;30.00;27.59;99951.41;6295580;28;20071;-70
2023/06/01 11:13:11;;;;;;;6.68;1.85;;;;;;;29.68;26.96;99943.44;6296991;28;20381;-70
2023/06/01 11:16:22;;;;;;;3.28;1.58;;;;;;;29.78;27.68;99941.09;6295522;28;20054;-70
2023/06/01 11:19:24;;;;;;;1.98;1.50;;;;;;;29.79;27.19;99945.41;6295690;28;20096;-70
2023/06/01 11:22:27;;;;;;;3.47;1.30;;;;;;;29.85;26.78;99927.56;6296587;28;20048;-70
2023/06/01 11:25:29;;;;;;;4.32;1.55;;;;;;;30.34;27.59;99928.47;6295579;28;20459;-70
2023/06/01 11:28:31;;;;;;;3.25;1.50;;;;;;;29.98;25.12;99921.22;6295471;28;20090;-69
2023/06/01 11:31:45;;;;;;;3.75;1.90;;;;;;;28.99;23.08;99913.78;6296257;28;20404;-69
2023/06/01 11:34:48;;;;;;;2.70;1.70;;;;;;;29.81;23.53;99915.63;6295174;28;20492;-69
2023/06/01 11:37:53;;;;;;;2.88;1.30;;;;;;;29.36;26.80;99913.94;6329210;28;20048;-69
2023/06/01 11:41:02;;;;;;;4.38;1.67;;;;;;;29.60;25.65;99914.97;6295177;28;20500;-69
2023/06/01 11:44:02;;;;;;;3.80;1.10;;;;;;;29.92;25.46;99901.44;6295522;28;20130;-70
2023/06/01 11:47:05;;;;;;;2.83;1.50;;;;;;;30.21;27.03;99901.69;6297840;28;20044;-70
2023/06/01 11:50:06;;;;;;;5.22;1.42;;;;;;;29.60;26.02;99901.53;6301323;28;20412;-71
2023/06/01 11:53:07;;;;;;;;;;;;;;;29.69;26.56;99899.38;6300491;28;20412;-70
2023/06/01 11:56:08;;;;;;;2.57;1.37;;;;;;;29.90;26.32;99892.78;6300276;28;19928;-70
2023/06/01 11:59:09;;;;;;;;;;;;;;;30.05;26.32;99895.09;6301865;28;20048;-70
2023/06/01 12:02:21;;;;;;;2.17;1.20;;;;;;;30.59;27.62;99884.47;6300210;28;19970;-70
2023/06/01 12:05:22;;;;;;;4.18;1.30;;;;;;;30.69;25.08;99882.84;6300239;28;20048;-70
2023/06/01 12:08:25;;;;;;;2.35;1.45;;;;;;;31.05;24.71;99881.09;6299966;28;20060;-70
2023/06/01 12:11:29;;;;;;;2.05;1.52;;;;;;;31.13;28.10;99874.53;6301057;28;20091;-71
2023/06/01 12:14:30;;;;;;;6.07;1.55;;;;;;;31.12;26.43;99873.72;6299852;28;20135;-70
2023/06/01 12:17:57;;;;;;;4.07;1.52;;;;;;;30.65;26.77;99864.69;6300988;28;20057;-70
2023/06/01 12:20:57;;;;;;;3.38;1.50;;;;;;;30.25;25.75;99868.75;6300342;28;20067;-69
2023/06/01 12:23:59;;;;;;;4.75;1.70;;;;;;;31.04;27.12;99867.84;6300921;28;20049;-69
2023/06/01 12:27:01;;;;;;;3.95;1.17;;;;;;;31.43;25.64;99874.41;6300665;28;20052;-69
2023/06/01 12:30:02;;;;;;;2.75;1.17;;;;;;;31.22;24.64;99870.44;6299365;28;20455;-70
2023/06/01 12:33:04;;;;;;;2.45;1.58;;;;;;;30.84;28.23;99868.94;6299370;28;20047;-70
2023/06/01 12:36:07;;;;;;;4.70;1.30;;;;;;;30.53;26.44;99851.19;6299450;28;20097;-70
2023/06/01 12:39:08;;;;;;;2.30;1.33;;;;;;;30.23;26.89;99860.09;6300330;28;20428;-70
2023/06/01 12:42:10;;;;;;;;;;;;;;;30.73;28.22;99848.22;6300599;28;20052;-69
2023/06/01 12:45:11;;;;;;;4.85;1.42;;;;;;;30.70;27.20;99844.13;6300307;28;20420;-69
2023/06/01 12:48:36;;;;;;;2.17;1.30;;;;;;;30.28;27.04;99849.44;6300174;28;20054;-69
2023/06/01 12:51:38;;;;;;;2.38;1.33;;;;;;;30.39;25.08;99847.06;6300108;28;20135;-69
2023/06/01 12:54:38;;;;;;;3.83;1.15;;;;;;;30.17;25.64;99842.16;6298811;28;20048;-69
2023/06/01 12:57:39;;;;;;;1.75;1.27;;;;;;;29.70;25.44;99842.72;6300044;28;20514;-70
2023/06/01 13:00:40;;;;;;;3.05;1.35;;;;;;;30.18;26.53;99838.41;6298016;28;20488;-70
2023/06/01 13:03:41;;;;;;;1.67;1.00;;;;;;;30.89;26.91;99839.50;6299824;28;20143;-70
2023/06/01 13:06:42;;;;;;;;;;;;;;;31.13;26.93;99834.09;6299028;28;20080;-70
2023/06/01 13:09:42;;;;;;;1.23;0.90;;;;;;;30.89;27.92;99831.41;6299669;28;19920;-70
2023/06/01 13:12:44;;;;;;;2.35;1.13;;;;;;;30.96;27.01;99827.78;6298183;28;20049;-70
2023/06/01 13:15:45;;;;;;;2.17;1.20;;;;;;;31.23;25.11;99823.56;6298508;28;20083;-70
2023/06/01 13:18:50;;;;;;;1.83;1.25;;;;;;;31.28;24.93;99825.56;6298616;28;20044;-69
2023/06/01 13:21:51;;;;;;;2.58;1.05;;;;;;;30.81;25.34;99817.44;6298094;28;20393;-70
2023/06/01 13:24:52;;;;;;;2.47;1.33;;;;;;;29.93;27.09;99809.75;6299406;28;20056;-69
2023/06/01 13:27:53;;;;;;;2.45;1.30;;;;;;;30.42;27.62;99820.50;6299079;28;20044;-69
2023/06/01 13:30:55;;;;;;;2.35;1.40;;;;;;;30.42;25.75;99814.31;6299140;28;20411;-71
2023/06/01 13:33:56;;;;;;;5.70;1.30;;;;;;;30.08;26.95;99814.75;6297715;28;20134;-69
2023/06/01 13:36:57;;;;;;;1.40;1.23;;;;;;;29.86;28.88;99808.22;6299063;28;20389;-70
2023/06/01 13:39:58;;;;;;;1.98;1.25;;;;;;;30.56;28.39;99810.38;6297582;28;20051;-71
2023/06/01 13:42:58;;;;;;;2.60;1.20;;;;;;;30.13;26.73;99814.06;6298944;28;20052;-70
2023/06/01 13:45:59;;;;;;;4.32;1.42;;;;;;;30.30;27.85;99809.69;6298758;28;20118;-70
2023/06/01 13:49:00;;;;;;;5.88;1.48;;;;;;;30.22;26.58;99809.19;6331156;28;20389;-70
2023/06/01 13:52:01;;;;;;;3.15;1.40;;;;;;;29.99;26.17;99807.22;6298421;28;20175;-69
2023/06/01 13:55:03;;;;;;;4.20;1.27;;;;;;;30.07;26.69;99794.28;6297317;28;20419;-70
2023/06/01 13:58:03;;;;;;;2.17;0.90;;;;;;;29.95;27.63;99796.09;6297405;28;20484;-70
2023/06/01 14:01:04;;;;;;;2.47;1.15;;;;;;;29.76;28.82;99787.22;6298519;28;20132;-70
2023/06/01 14:04:05;;;;;;;1.85;1.08;;;;;;;29.76;26.82;99787.22;6297072;28;20052;-69
2023/06/01 14:07:06;;;;;;;1.75;1.00;;;;;;;28.72;27.23;99785.16;6296974;28;20056;-69
2023/06/01 14:10:07;;;;;;;1.77;1.10;;;;;;;28.97;27.34;99775.41;6296106;28;20098;-70
2023/06/01 14:13:08;;;;;;;;;;;;;;;29.05;27.30;99767.88;6331078;28;20462;-70
2023/06/01 14:16:09;;;;;;;1.83;1.27;;;;;;;29.27;26.50;99775.56;6296862;28;20009;-70